Time;durP1;ratioP1;P1;durP2;ratioP2;P2;SDS_P1;SDS_P2;PMS_P1;PMS_P2;Temp;Humidity;BMP_temperature;BMP_pressure;BME280_temperature;BME280_humidity;BME280_pressure;Samples;Min_cycle;Max_cycle;Signal;HPM_P1;HPM_P2
2022/06/20 00:00:58;;;;;;;5.25;3.50;;;28.80;99.90;;;;;;4176590;28;20935;-64
2022/06/20 00:03:04;;;;;;;10.02;4.35;;;28.80;99.90;;;;;;4173755;28;20381;-65
2022/06/20 00:05:19;;;;;;;9.50;4.28;;;28.80;99.90;;;;;;4175655;28;20040;-65
2022/06/20 00:07:25;;;;;;;6.78;3.75;;;28.80;99.90;;;;;;4177941;28;20064;-65
2022/06/20 00:09:30;;;;;;;7.32;3.50;;;28.80;99.90;;;;;;4176270;28;20053;-64
2022/06/20 00:11:40;;;;;;;5.65;3.42;;;28.90;99.90;;;;;;4177710;28;20598;-65
2022/06/20 00:13:49;;;;;;;10.10;3.53;;;28.90;99.90;;;;;;4176421;28;20045;-65
2022/06/20 00:15:56;;;;;;;6.20;3.17;;;29.00;99.90;;;;;;4180805;28;20053;-65
2022/06/20 00:18:02;;;;;;;6.75;2.90;;;29.00;99.90;;;;;;4180935;28;20750;-65
2022/06/20 00:20:15;;;;;;;7.13;2.80;;;29.00;99.90;;;;;;4181585;28;20049;-65
2022/06/20 00:22:22;;;;;;;3.70;2.50;;;29.10;99.90;;;;;;4180205;28;20045;-65
2022/06/20 00:24:27;;;;;;;15.20;5.25;;;29.10;99.90;;;;;;4180416;28;20088;-65
2022/06/20 00:26:35;;;;;;;8.85;2.92;;;29.20;99.90;;;;;;4180691;28;20107;-66
2022/06/20 00:28:42;;;;;;;5.55;2.42;;;29.40;99.90;;;;;;4180184;28;20037;-66
2022/06/20 00:30:47;;;;;;;5.80;2.80;;;29.40;99.90;;;;;;4173374;28;20445;-67
2022/06/20 00:32:53;;;;;;;3.65;2.22;;;29.30;99.90;;;;;;4179111;28;20092;-67
2022/06/20 00:34:59;;;;;;;6.55;2.15;;;29.30;99.90;;;;;;4180322;28;20049;-66
2022/06/20 00:37:05;;;;;;;4.78;2.20;;;29.30;99.90;;;;;;4181169;28;20052;-66
2022/06/20 00:39:16;;;;;;;7.00;2.92;;;29.40;99.90;;;;;;4180541;28;20556;-66
2022/06/20 00:41:34;;;;;;;5.97;4.47;;;29.50;99.90;;;;;;4165296;28;20050;-66
2022/06/20 00:43:41;;;;;;;4.70;3.10;;;29.50;99.90;;;;;;4179180;28;20053;-67
2022/06/20 00:45:46;;;;;;;4.20;2.63;;;29.50;99.90;;;;;;4179385;28;20099;-66
2022/06/20 00:47:51;;;;;;;5.78;3.42;;;29.50;99.90;;;;;;4180744;28;20126;-66
2022/06/20 00:50:07;;;;;;;6.05;2.85;;;29.50;99.90;;;;;;4172444;28;20144;-66
2022/06/20 00:52:43;;;;;;;4.18;2.45;;;29.50;99.90;;;;;;4179884;28;20083;-66
2022/06/20 00:55:21;;;;;;;4.43;2.22;;;29.60;99.90;;;;;;4180531;28;20041;-66
2022/06/20 00:57:35;;;;;;;3.90;1.88;;;29.70;99.90;;;;;;4176044;28;20376;-66
2022/06/20 00:59:43;;;;;;;5.95;2.00;;;29.70;99.90;;;;;;4180558;28;20037;-66
2022/06/20 01:01:49;;;;;;;4.35;2.00;;;29.70;99.90;;;;;;4179686;28;20045;-66
2022/06/20 01:03:55;;;;;;;4.03;1.90;;;29.80;99.90;;;;;;4180273;28;20051;-66
2022/06/20 01:06:13;;;;;;;5.30;2.00;;;29.80;99.90;;;;;;4179875;28;20045;-66
2022/06/20 01:08:31;;;;;;;4.15;1.95;;;29.90;99.90;;;;;;4174253;28;20052;-65
2022/06/20 01:10:59;;;;;;;3.88;1.73;;;29.90;99.90;;;;;;4178917;28;20515;-66
2022/06/20 01:13:04;;;;;;;6.70;2.10;;;30.00;99.90;;;;;;4180086;28;20048;-67
2022/06/20 01:15:21;;;;;;;3.88;1.90;;;30.00;99.90;;;;;;4172639;28;20515;-65
2022/06/20 01:17:36;;;;;;;4.35;1.98;;;30.10;99.90;;;;;;4178453;28;20048;-66
2022/06/20 01:20:03;;;;;;;5.30;1.73;;;30.20;99.90;;;;;;4162726;28;20077;-65
2022/06/20 01:22:27;;;;;;;3.78;2.00;;;30.30;99.90;;;;;;4179712;28;20487;-65
2022/06/20 01:24:32;;;;;;;;;;;30.30;99.90;;;;;;4180927;28;20049;-65
2022/06/20 01:27:12;;;;;;;3.92;2.03;;;30.30;99.90;;;;;;4180189;28;19942;-65
2022/06/20 01:29:18;;;;;;;2.97;1.88;;;30.30;99.90;;;;;;4176979;28;20053;-65
2022/06/20 01:31:25;;;;;;;3.67;1.98;;;30.40;99.90;;;;;;4179909;28;20147;-66
2022/06/20 01:33:30;;;;;;;4.43;2.58;;;30.40;99.80;;;;;;4178849;28;20152;-65
2022/06/20 01:37:54;;;;;;;4.75;2.05;;;30.40;99.70;;;;;;4177064;28;20499;-65
2022/06/20 01:40:17;;;;;;;3.72;1.90;;;30.60;99.50;;;;;;4179087;28;20517;-65
2022/06/20 01:42:26;;;;;;;6.03;2.30;;;30.60;99.40;;;;;;4172734;28;20048;-67
2022/06/20 01:44:38;;;;;;;3.85;2.28;;;30.70;99.40;;;;;;4180034;28;20458;-67
2022/06/20 01:46:43;;;;;;;3.05;2.00;;;30.60;99.20;;;;;;4179882;28;20057;-66
2022/06/20 01:48:52;;;;;;;7.97;2.25;;;30.70;99.20;;;;;;4178945;28;20088;-67
2022/06/20 01:50:58;;;;;;;4.20;2.15;;;30.80;99.20;;;;;;4178617;28;20067;-67
2022/06/20 01:53:04;;;;;;;5.30;2.30;;;30.80;98.80;;;;;;4180328;28;20041;-67
2022/06/20 01:55:13;;;;;;;3.17;1.80;;;30.90;98.80;;;;;;4161007;28;20476;-67
2022/06/20 01:57:18;;;;;;;5.88;1.90;;;31.00;98.80;;;;;;4179706;28;20053;-67
2022/06/20 01:59:30;;;;;;;5.05;1.95;;;31.00;98.60;;;;;;4179485;28;20056;-67
2022/06/20 02:01:43;;;;;;;5.05;1.55;;;31.00;98.50;;;;;;4173494;28;20057;-67
2022/06/20 02:04:02;;;;;;;5.78;2.05;;;31.00;98.30;;;;;;4180120;28;20125;-67
2022/06/20 02:06:15;;;;;;;4.25;1.60;;;31.10;97.80;;;;;;4179098;28;20105;-67
2022/06/20 02:08:24;;;;;;;2.80;1.90;;;31.00;98.00;;;;;;4180063;28;20051;-67
2022/06/20 02:11:00;;;;;;;3.35;1.70;;;31.00;97.80;;;;;;4177982;28;20037;-66
2022/06/20 02:13:15;;;;;;;3.55;1.60;;;31.10;97.80;;;;;;4177217;28;20079;-67
2022/06/20 02:15:28;;;;;;;3.03;1.65;;;31.10;97.60;;;;;;4178661;28;20476;-67
2022/06/20 02:17:41;;;;;;;3.15;1.45;;;31.10;97.00;;;;;;4186124;28;20052;-67
2022/06/20 02:19:50;;;;;;;3.97;1.50;;;31.10;96.50;;;;;;4172241;28;20714;-67
2022/06/20 02:21:57;;;;;;;4.55;1.27;;;31.20;96.20;;;;;;4179709;28;20107;-67
2022/06/20 02:24:14;;;;;;;3.63;1.38;;;31.30;96.30;;;;;;4179627;28;20094;-67
2022/06/20 02:26:18;;;;;;;3.17;1.58;;;31.40;96.00;;;;;;4179628;28;20041;-67
2022/06/20 02:28:40;;;;;;;3.35;1.50;;;31.40;96.30;;;;;;4173028;28;20116;-66
2022/06/20 02:30:45;;;;;;;2.83;1.27;;;31.50;96.20;;;;;;4179537;28;20045;-66
2022/06/20 02:33:00;;;;;;;2.58;1.20;;;31.60;95.90;;;;;;4171729;28;20061;-66
2022/06/20 02:35:09;;;;;;;2.42;1.25;;;31.70;95.70;;;;;;4179154;28;20041;-66
2022/06/20 02:37:20;;;;;;;3.08;1.50;;;31.80;96.00;;;;;;4177801;28;20053;-67
2022/06/20 02:39:36;;;;;;;3.63;1.88;;;31.90;95.60;;;;;;4179478;28;20037;-67
2022/06/20 02:41:56;;;;;;;3.65;1.33;;;31.90;95.90;;;;;;4171425;28;20179;-67
2022/06/20 02:44:10;;;;;;;3.00;1.60;;;31.80;95.20;;;;;;4179322;28;20451;-66
2022/06/20 02:46:18;;;;;;;2.72;1.30;;;32.00;95.30;;;;;;4178326;28;20431;-68
2022/06/20 02:48:27;;;;;;;3.33;1.25;;;32.10;95.40;;;;;;4179037;28;20083;-64
2022/06/20 02:50:53;;;;;;;2.28;1.45;;;32.20;95.30;;;;;;4176587;28;20037;-63
2022/06/20 02:53:05;;;;;;;6.35;1.77;;;32.30;95.20;;;;;;4171303;28;20110;-63
2022/06/20 02:55:13;;;;;;;3.63;1.27;;;32.40;94.80;;;;;;4178121;28;20481;-63
2022/06/20 02:57:40;;;;;;;3.83;1.50;;;32.40;94.80;;;;;;4162066;28;20049;-63
2022/06/20 02:59:51;;;;;;;4.97;1.33;;;32.50;95.10;;;;;;4179216;28;20040;-63
2022/06/20 03:02:06;;;;;;;3.63;1.52;;;32.60;95.10;;;;;;4177852;28;20068;-64
2022/06/20 03:04:12;;;;;;;3.55;1.45;;;32.70;95.10;;;;;;4178143;28;20094;-63
2022/06/20 03:06:35;;;;;;;3.58;1.73;;;32.70;94.90;;;;;;4178643;28;20037;-63
2022/06/20 03:08:41;;;;;;;3.00;1.47;;;32.70;94.60;;;;;;4178801;28;20041;-63
2022/06/20 03:10:49;;;;;;;3.28;1.30;;;32.70;94.80;;;;;;4178653;28;20053;-63
2022/06/20 03:12:54;;;;;;;4.30;1.50;;;32.80;94.20;;;;;;4171983;28;20045;-63
2022/06/20 03:15:02;;;;;;;2.75;1.48;;;32.80;94.30;;;;;;4159659;28;20059;-63
2022/06/20 03:17:09;;;;;;;6.03;2.10;;;32.80;94.30;;;;;;4178410;28;20037;-63
2022/06/20 03:19:22;;;;;;;4.50;1.50;;;33.00;94.40;;;;;;4164444;28;20049;-63
2022/06/20 03:21:32;;;;;;;3.70;1.70;;;33.10;94.30;;;;;;4178512;28;20056;-63
2022/06/20 03:23:38;;;;;;;5.80;1.70;;;33.30;94.10;;;;;;4178914;28;20048;-63
2022/06/20 03:25:43;;;;;;;2.22;1.40;;;33.30;93.90;;;;;;4178497;28;20041;-63
2022/06/20 03:27:53;;;;;;;3.40;1.75;;;33.20;93.20;;;;;;4178748;28;20398;-63
2022/06/20 03:30:00;;;;;;;4.22;1.38;;;33.10;93.20;;;;;;4178769;28;20045;-63
2022/06/20 03:32:06;;;;;;;4.40;1.50;;;33.30;93.30;;;;;;4177216;28;20060;-63
2022/06/20 03:34:12;;;;;;;3.33;1.40;;;33.30;93.50;;;;;;4178398;28;20056;-63
2022/06/20 03:36:26;;;;;;;5.13;1.40;;;33.40;92.40;;;;;;4170267;28;20043;-63
2022/06/20 03:38:31;;;;;;;3.78;1.52;;;33.40;92.10;;;;;;4154782;28;20381;-63
2022/06/20 03:40:39;;;;;;;2.33;1.25;;;33.30;92.30;;;;;;4178739;28;20044;-63
2022/06/20 03:42:45;;;;;;;5.30;1.48;;;33.40;92.20;;;;;;4177271;28;20056;-63
2022/06/20 03:44:54;;;;;;;4.28;1.40;;;33.50;92.10;;;;;;4178247;28;20048;-63
2022/06/20 03:47:31;;;;;;;3.15;1.38;;;33.50;92.40;;;;;;4177989;28;20040;-63
2022/06/20 03:49:46;;;;;;;4.38;1.75;;;33.60;92.20;;;;;;4177190;28;20056;-63
2022/06/20 03:52:16;;;;;;;3.33;1.33;;;33.70;92.20;;;;;;4178520;28;20124;-63
2022/06/20 03:54:34;;;;;;;2.38;1.40;;;33.70;92.00;;;;;;4161250;28;20053;-63
2022/06/20 03:57:02;;;;;;;4.93;1.88;;;33.60;92.10;;;;;;4172541;28;20053;-63
2022/06/20 03:59:31;;;;;;;3.08;1.65;;;33.60;92.00;;;;;;4177975;28;20091;-63
2022/06/20 04:02:03;;;;;;;2.33;1.35;;;33.60;91.50;;;;;;4171412;28;20515;-63
2022/06/20 04:04:47;;;;;;;3.47;1.20;;;33.50;92.00;;;;;;4178164;28;20507;-63
2022/06/20 04:07:04;;;;;;;4.35;1.20;;;33.50;91.50;;;;;;4173972;28;20517;-62
2022/06/20 04:12:01;;;;;;;3.00;1.20;;;33.70;91.60;;;;;;4174710;28;20106;-63
2022/06/20 04:14:25;;;;;;;3.53;1.77;;;34.00;91.90;;;;;;4160025;28;20084;-63
2022/06/20 04:18:27;;;;;;;3.38;1.40;;;34.10;91.80;;;;;;4178097;28;20068;-63
2022/06/20 04:19:38;;;;;;;5.32;1.40;;;34.30;91.90;;;;;;4175496;28;20514;-63
2022/06/20 04:22:10;;;;;;;3.15;1.42;;;34.10;92.00;;;;;;4177867;28;20049;-64
2022/06/20 04:24:22;;;;;;;3.78;1.52;;;34.10;91.90;;;;;;4173384;28;20041;-63
2022/06/20 04:26:53;;;;;;;2.10;1.25;;;34.10;91.20;;;;;;4178299;28;20036;-63
2022/06/20 04:29:21;;;;;;;2.50;1.10;;;33.80;91.10;;;;;;4172080;28;20049;-63
2022/06/20 04:31:56;;;;;;;3.83;1.33;;;33.40;90.60;;;;;;4176548;28;20780;-63
2022/06/20 04:34:39;;;;;;;2.58;1.30;;;33.50;91.20;;;;;;4178196;28;20053;-63
2022/06/20 04:37:21;;;;;;;2.63;1.25;;;33.90;91.20;;;;;;4176582;28;20392;-63
2022/06/20 04:39:52;;;;;;;5.32;1.52;;;33.80;90.90;;;;;;4177799;28;20037;-63
2022/06/20 04:42:23;;;;;;;5.32;1.42;;;33.90;90.50;;;;;;4174548;28;20063;-63
2022/06/20 04:44:45;;;;;;;2.78;1.40;;;34.20;90.90;;;;;;4171458;28;20055;-63
2022/06/20 04:47:12;;;;;;;1.77;1.23;;;34.30;90.90;;;;;;4178173;28;20041;-63
2022/06/20 04:49:25;;;;;;;2.30;1.52;;;34.30;91.10;;;;;;4169900;28;20049;-64
2022/06/20 04:51:38;;;;;;;4.15;1.30;;;34.50;90.90;;;;;;4177826;28;20052;-63
2022/06/20 04:53:44;;;;;;;2.40;1.33;;;34.60;90.90;;;;;;4175950;28;20133;-64
2022/06/20 04:55:53;;;;;;;4.57;1.33;;;34.80;90.50;;;;;;4177758;28;20069;-63
2022/06/20 04:58:07;;;;;;;2.63;1.42;;;34.90;90.50;;;;;;4177464;28;20041;-63
2022/06/20 05:00:33;;;;;;;2.55;1.33;;;34.70;90.60;;;;;;4178088;28;20088;-64
2022/06/20 05:02:47;;;;;;;2.92;1.08;;;34.50;90.80;;;;;;4179993;28;20049;-63
2022/06/20 05:05:04;;;;;;;2.63;1.10;;;34.20;90.10;;;;;;4180411;28;20068;-64
2022/06/20 05:07:26;;;;;;;3.00;1.35;;;34.40;90.10;;;;;;4180938;28;20040;-63
2022/06/20 05:10:01;;;;;;;1.30;0.93;;;34.50;88.30;;;;;;4173201;28;20047;-63
2022/06/20 05:12:29;;;;;;;3.47;1.15;;;34.60;89.60;;;;;;4180944;28;20132;-63
2022/06/20 05:14:50;;;;;;;3.40;0.90;;;34.80;88.30;;;;;;4171697;28;20048;-63
2022/06/20 05:16:59;;;;;;;2.35;1.10;;;35.10;87.90;;;;;;4179111;28;20060;-64
2022/06/20 05:19:08;;;;;;;1.67;1.25;;;35.30;87.80;;;;;;4180447;28;20048;-64
2022/06/20 05:21:35;;;;;;;2.95;1.27;;;35.40;88.30;;;;;;4179283;28;20095;-63
2022/06/20 05:23:45;;;;;;;1.45;1.00;;;35.40;88.50;;;;;;4178748;28;20111;-63
2022/06/20 05:25:54;;;;;;;3.83;1.30;;;35.00;88.00;;;;;;4180150;28;20044;-64
2022/06/20 05:28:02;;;;;;;3.17;1.10;;;34.90;88.60;;;;;;4180163;28;20047;-63
2022/06/20 05:30:18;;;;;;;;;;;34.60;89.90;;;;;;4174466;28;20049;-64
2022/06/20 05:32:49;;;;;;;3.08;1.40;;;34.60;90.20;;;;;;4180536;28;19920;-64
2022/06/20 05:35:13;;;;;;;3.28;1.50;;;34.30;88.90;;;;;;4178522;28;20041;-63
2022/06/20 05:37:52;;;;;;;3.60;1.98;;;34.50;90.00;;;;;;4178617;28;20045;-63
2022/06/20 05:40:17;;;;;;;2.30;1.45;;;34.70;89.90;;;;;;4180564;28;20135;-63
2022/06/20 05:42:25;;;;;;;4.90;1.35;;;34.60;90.40;;;;;;4178927;28;20095;-62
2022/06/20 05:44:32;;;;;;;1.52;1.17;;;34.60;90.20;;;;;;4180465;28;20091;-63
2022/06/20 05:46:56;;;;;;;1.33;1.10;;;34.50;89.80;;;;;;4146256;28;20049;-63
2022/06/20 05:49:07;;;;;;;5.32;1.58;;;34.50;90.10;;;;;;4177247;28;20041;-63
2022/06/20 05:51:14;;;;;;;4.05;1.52;;;34.30;89.60;;;;;;4179863;28;20423;-63
2022/06/20 05:53:24;;;;;;;2.97;1.33;;;34.30;90.30;;;;;;4180569;28;20049;-63
2022/06/20 05:55:46;;;;;;;4.82;1.52;;;34.70;90.30;;;;;;4173604;28;20151;-63
2022/06/20 05:57:54;;;;;;;2.53;1.50;;;35.10;90.30;;;;;;4179970;28;20525;-62
2022/06/20 06:00:06;;;;;;;2.80;1.25;;;35.40;90.10;;;;;;4179984;28;20029;-63
2022/06/20 06:02:49;;;;;;;1.90;1.40;;;35.50;88.70;;;;;;4179838;28;20106;-63
2022/06/20 06:05:17;;;;;;;3.60;1.40;;;35.70;88.40;;;;;;4174360;28;20039;-63
2022/06/20 06:07:47;;;;;;;2.20;1.40;;;35.90;88.10;;;;;;4179702;28;20041;-62
2022/06/20 06:10:24;;;;;;;2.35;1.55;;;35.60;85.30;;;;;;4180456;28;20108;-63
2022/06/20 06:12:42;;;;;;;2.83;1.38;;;35.30;86.50;;;;;;4177811;28;20239;-62
2022/06/20 06:14:58;;;;;;;4.05;1.83;;;35.30;86.90;;;;;;4180291;28;20052;-63
2022/06/20 06:17:21;;;;;;;3.00;1.60;;;35.20;87.00;;;;;;4176107;28;20049;-63
2022/06/20 06:19:55;;;;;;;3.22;1.58;;;35.20;87.50;;;;;;4178911;28;20585;-63
2022/06/20 06:22:04;;;;;;;2.65;1.48;;;35.20;86.70;;;;;;4180056;28;20526;-63
2022/06/20 06:24:10;;;;;;;2.72;1.50;;;35.20;88.10;;;;;;4179733;28;20039;-63
2022/06/20 06:26:25;;;;;;;2.63;1.52;;;35.30;87.90;;;;;;4179599;28;20048;-63
2022/06/20 06:28:40;;;;;;;2.40;1.27;;;35.40;87.20;;;;;;4170994;28;20410;-63
2022/06/20 06:31:10;;;;;;;3.30;1.40;;;35.60;87.70;;;;;;4178035;28;20063;-63
2022/06/20 06:33:24;;;;;;;3.30;1.33;;;35.80;86.80;;;;;;4179295;28;20095;-63
2022/06/20 06:36:07;;;;;;;1.85;1.20;;;35.90;86.20;;;;;;4178554;28;20048;-62
2022/06/20 06:38:17;;;;;;;2.15;1.45;;;36.10;86.90;;;;;;4178007;28;20052;-63
2022/06/20 06:40:48;;;;;;;2.47;1.27;;;36.20;86.90;;;;;;4179452;28;20118;-63
2022/06/20 06:42:57;;;;;;;4.18;1.40;;;36.40;85.70;;;;;;4179635;28;20041;-63
2022/06/20 06:45:01;;;;;;;1.58;1.30;;;36.10;86.50;;;;;;4179319;28;20458;-63
2022/06/20 06:47:13;;;;;;;4.13;1.75;;;36.00;86.90;;;;;;4179249;28;20053;-63
2022/06/20 06:49:44;;;;;;;3.13;1.77;;;36.00;88.00;;;;;;4169528;28;20041;-63
2022/06/20 06:52:17;;;;;;;3.33;1.80;;;36.20;87.50;;;;;;4178572;28;20102;-62
2022/06/20 06:54:36;;;;;;;2.15;1.45;;;36.50;87.30;;;;;;4174426;28;20488;-62
2022/06/20 06:56:53;;;;;;;2.83;1.50;;;36.60;86.60;;;;;;4178444;28;20061;-63
2022/06/20 06:59:13;;;;;;;1.48;1.23;;;36.70;86.90;;;;;;4177912;28;20045;-62
2022/06/20 07:01:27;;;;;;;1.42;0.98;;;36.80;85.50;;;;;;4163672;28;20111;-62
2022/06/20 07:03:58;;;;;;;3.05;1.20;;;36.90;82.40;;;;;;4175972;28;20124;-63
2022/06/20 07:06:11;;;;;;;3.47;1.20;;;37.00;82.70;;;;;;4181215;28;20392;-63
2022/06/20 07:08:41;;;;;;;1.13;0.70;;;37.20;82.40;;;;;;4143691;28;20073;-62
2022/06/20 07:10:52;;;;;;;1.42;0.73;;;37.20;81.90;;;;;;4144097;28;20123;-63
2022/06/20 07:13:02;;;;;;;1.98;0.70;;;37.10;80.70;;;;;;4130411;28;20132;-62
2022/06/20 07:15:23;;;;;;;1.42;0.88;;;37.10;81.50;;;;;;4142414;28;20108;-63
2022/06/20 07:17:46;;;;;;;1.63;0.85;;;37.10;81.00;;;;;;4143863;28;20140;-63
2022/06/20 07:19:51;;;;;;;0.80;0.63;;;37.30;80.30;;;;;;4127373;28;20488;-63
2022/06/20 07:21:59;;;;;;;2.08;0.70;;;37.30;80.40;;;;;;4143394;28;20466;-63
2022/06/20 07:24:13;;;;;;;1.30;0.90;;;37.30;81.20;;;;;;4136154;28;20445;-64
2022/06/20 07:26:19;;;;;;;1.10;0.70;;;37.20;81.10;;;;;;4143927;28;20062;-63
2022/06/20 07:29:07;;;;;;;1.42;0.90;;;37.10;80.80;;;;;;4122792;28;20089;-63
2022/06/20 07:31:25;;;;;;;2.03;1.00;;;36.70;81.80;;;;;;4142376;28;20081;-62
2022/06/20 07:33:42;;;;;;;1.42;0.90;;;36.60;82.60;;;;;;4142785;28;20296;-63
2022/06/20 07:35:52;;;;;;;7.00;1.40;;;36.70;82.30;;;;;;4127882;28;20038;-62
2022/06/20 07:38:03;;;;;;;2.78;1.50;;;36.80;81.00;;;;;;4143669;28;20046;-63
2022/06/20 07:40:27;;;;;;;8.70;2.33;;;37.00;81.20;;;;;;4135460;28;20556;-63
2022/06/20 07:42:53;;;;;;;1.60;1.08;;;36.90;83.20;;;;;;4143474;28;20048;-63
2022/06/20 07:45:21;;;;;;;2.75;1.02;;;37.00;83.60;;;;;;4143323;28;20041;-64
2022/06/20 07:47:44;;;;;;;3.63;1.40;;;37.00;84.50;;;;;;4178626;28;20053;-63
2022/06/20 07:49:55;;;;;;;5.38;1.15;;;37.00;84.20;;;;;;4178318;28;20051;-63
2022/06/20 07:52:09;;;;;;;1.88;1.17;;;37.00;84.50;;;;;;4178044;28;20037;-63
2022/06/20 07:54:24;;;;;;;1.67;1.00;;;37.20;83.50;;;;;;4178386;28;20539;-63
2022/06/20 07:56:45;;;;;;;2.63;1.15;;;37.10;83.50;;;;;;4171353;28;20095;-63
2022/06/20 07:58:57;;;;;;;2.10;1.20;;;37.20;83.50;;;;;;4177895;28;20051;-63
2022/06/20 08:01:06;;;;;;;2.22;1.20;;;37.20;82.80;;;;;;4177836;28;20041;-63
2022/06/20 08:03:36;;;;;;;1.60;0.93;;;37.30;83.30;;;;;;4176459;28;20080;-63
2022/06/20 08:05:46;;;;;;;1.90;1.30;;;37.20;83.40;;;;;;4177952;28;20111;-63
2022/06/20 08:08:26;;;;;;;2.07;1.13;;;37.10;84.00;;;;;;4174403;28;20033;-63
2022/06/20 08:10:37;;;;;;;1.98;1.00;;;37.10;84.40;;;;;;4169767;28;20446;-63
2022/06/20 08:13:02;;;;;;;2.05;1.15;;;37.10;82.70;;;;;;4172689;28;20457;-63
2022/06/20 08:15:21;;;;;;;2.30;1.02;;;37.10;83.00;;;;;;4171772;28;20152;-63
2022/06/20 08:17:28;;;;;;;2.22;1.33;;;37.20;83.30;;;;;;4170300;28;20849;-64
2022/06/20 08:19:33;;;;;;;2.75;0.93;;;37.20;82.30;;;;;;4175258;28;20043;-63
2022/06/20 08:21:45;;;;;;;4.22;1.20;;;37.20;82.90;;;;;;4171440;28;20096;-63
2022/06/20 08:24:01;;;;;;;2.95;1.35;;;37.10;83.10;;;;;;4177912;28;20045;-63
2022/06/20 08:26:09;;;;;;;1.98;1.08;;;37.20;83.20;;;;;;4175093;28;20039;-63
2022/06/20 08:28:21;;;;;;;4.03;1.08;;;37.30;82.80;;;;;;4172750;28;20052;-63
2022/06/20 08:30:48;;;;;;;4.07;1.20;;;37.30;82.60;;;;;;4176373;28;20045;-63
2022/06/20 08:33:28;;;;;;;5.00;1.23;;;37.20;83.10;;;;;;4177620;28;20106;-63
2022/06/20 08:36:14;;;;;;;3.17;0.90;;;37.10;82.80;;;;;;4193890;28;20132;-63
2022/06/20 08:38:27;;;;;;;1.85;1.10;;;37.00;83.00;;;;;;4178015;28;20166;-63
2022/06/20 08:40:50;;;;;;;3.13;1.10;;;37.00;83.10;;;;;;4180536;28;20040;-63
2022/06/20 08:43:35;;;;;;;2.03;1.10;;;37.00;83.20;;;;;;4175090;28;20043;-63
2022/06/20 08:46:19;;;;;;;3.42;1.10;;;36.90;82.70;;;;;;4179766;28;20052;-62
2022/06/20 08:48:51;;;;;;;4.28;1.25;;;37.00;82.80;;;;;;4178415;28;20045;-63
2022/06/20 08:51:27;;;;;;;2.05;1.17;;;37.00;83.00;;;;;;4173947;28;20045;-62
2022/06/20 08:54:04;;;;;;;2.95;1.30;;;36.90;82.20;;;;;;4176652;28;21547;-63
2022/06/20 08:56:32;;;;;;;1.88;1.20;;;36.90;82.50;;;;;;4179587;28;20484;-64
2022/06/20 08:59:02;;;;;;;1.77;1.10;;;36.80;81.90;;;;;;4179842;28;20526;-63
2022/06/20 09:01:28;;;;;;;3.08;1.15;;;36.70;82.70;;;;;;4180912;28;20099;-63
2022/06/20 09:04:08;;;;;;;1.85;1.10;;;36.60;82.40;;;;;;4180805;28;20703;-64
2022/06/20 09:06:24;;;;;;;1.90;1.02;;;36.60;82.70;;;;;;4173351;28;20077;-63
2022/06/20 09:08:49;;;;;;;2.47;1.38;;;36.60;82.80;;;;;;4179553;28;20499;-64
2022/06/20 09:11:18;;;;;;;2.33;1.20;;;36.60;82.00;;;;;;4180412;28;20045;-63
2022/06/20 09:13:57;;;;;;;2.75;1.10;;;36.70;81.60;;;;;;4175543;28;20400;-63
2022/06/20 09:16:31;;;;;;;5.00;1.50;;;36.70;81.70;;;;;;4173402;28;20049;-63
2022/06/20 09:19:11;;;;;;;1.70;1.20;;;36.60;81.60;;;;;;4179881;28;20083;-63
2022/06/20 09:21:54;;;;;;;2.70;1.20;;;36.60;82.40;;;;;;4180371;28;20045;-63
2022/06/20 09:24:31;;;;;;;2.30;1.42;;;36.40;82.50;;;;;;4180407;28;20048;-63
2022/06/20 09:27:14;;;;;;;2.67;1.50;;;36.20;82.60;;;;;;4175336;28;20549;-63
2022/06/20 09:29:40;;;;;;;4.38;1.80;;;36.00;83.00;;;;;;4193237;28;20052;-63
2022/06/20 09:32:14;;;;;;;3.03;1.65;;;36.10;83.50;;;;;;4180628;28;20041;-63
2022/06/20 09:34:59;;;;;;;1.80;1.10;;;36.00;83.30;;;;;;4179137;28;20049;-63
2022/06/20 09:37:38;;;;;;;2.05;1.10;;;36.00;82.80;;;;;;4180088;28;20049;-63
2022/06/20 09:40:05;;;;;;;6.28;1.58;;;35.90;82.30;;;;;;4180340;28;20434;-63
2022/06/20 09:42:34;;;;;;;2.17;1.23;;;35.80;82.80;;;;;;4179376;28;20095;-63
2022/06/20 09:45:04;;;;;;;2.95;1.55;;;35.70;84.30;;;;;;4174803;28;20075;-64
2022/06/20 09:47:41;;;;;;;2.72;1.63;;;35.70;84.50;;;;;;4175165;28;20045;-64
2022/06/20 09:50:21;;;;;;;2.42;1.80;;;35.90;84.20;;;;;;4157431;28;20069;-64
2022/06/20 09:52:54;;;;;;;4.47;2.30;;;36.00;83.70;;;;;;4172986;28;20147;-65
2022/06/20 09:55:27;;;;;;;2.97;1.77;;;36.10;83.90;;;;;;4179419;28;20048;-65
2022/06/20 09:57:50;;;;;;;8.80;3.88;;;36.20;83.70;;;;;;4171994;28;20053;-65
2022/06/20 10:00:10;;;;;;;7.47;4.03;;;36.20;83.10;;;;;;4178469;28;20049;-64
2022/06/20 10:02:36;;;;;;;8.50;4.03;;;36.20;82.60;;;;;;4179044;28;20041;-65
2022/06/20 10:05:03;;;;;;;5.20;2.85;;;36.20;82.60;;;;;;4179362;28;20128;-65
2022/06/20 10:07:15;;;;;;;5.22;2.25;;;36.30;82.10;;;;;;4179422;28;20048;-64
2022/06/20 10:09:32;;;;;;;5.07;1.85;;;36.20;82.60;;;;;;4194670;28;20056;-65
2022/06/20 10:11:54;;;;;;;3.13;1.92;;;36.20;83.30;;;;;;4178013;28;20037;-65
2022/06/20 10:14:25;;;;;;;4.13;1.95;;;36.10;84.20;;;;;;4176838;28;20590;-65
2022/06/20 10:17:04;;;;;;;2.50;1.80;;;36.00;85.60;;;;;;4177442;28;20455;-65
2022/06/20 10:19:51;;;;;;;4.80;1.60;;;35.90;85.80;;;;;;4168872;28;20456;-65
2022/06/20 10:22:11;;;;;;;2.33;1.33;;;35.80;86.10;;;;;;4179362;28;20041;-65
2022/06/20 10:24:32;;;;;;;2.40;1.30;;;35.70;86.00;;;;;;4179417;28;20499;-65
2022/06/20 10:27:08;;;;;;;2.35;1.40;;;35.70;85.80;;;;;;4177499;28;20045;-65
2022/06/20 10:29:24;;;;;;;2.50;1.10;;;35.60;85.50;;;;;;4177415;28;20044;-65
2022/06/20 10:31:43;;;;;;;2.17;1.27;;;35.60;85.70;;;;;;4178331;28;20454;-65
2022/06/20 10:34:21;;;;;;;2.53;1.50;;;35.60;86.00;;;;;;4177106;28;20118;-65
2022/06/20 10:36:50;;;;;;;2.70;1.70;;;35.50;86.20;;;;;;4179515;28;20080;-66
2022/06/20 10:39:11;;;;;;;5.35;3.55;;;35.50;86.60;;;;;;4175712;28;20044;-66
2022/06/20 10:41:31;;;;;;;4.82;3.88;;;35.50;87.20;;;;;;4189937;28;20383;-65
2022/06/20 10:43:56;;;;;;;5.20;3.45;;;35.40;87.30;;;;;;4169489;28;20124;-65
2022/06/20 10:46:24;;;;;;;7.70;3.88;;;35.30;87.70;;;;;;4171355;28;20159;-65
2022/06/20 10:48:43;;;;;;;5.43;3.38;;;35.30;87.90;;;;;;4178999;28;20442;-65
2022/06/20 10:51:16;;;;;;;5.40;3.50;;;35.20;88.10;;;;;;4171409;28;20045;-65
2022/06/20 10:53:52;;;;;;;6.28;2.97;;;35.10;88.20;;;;;;4179381;28;20056;-65
2022/06/20 10:56:23;;;;;;;5.78;2.80;;;35.10;88.60;;;;;;4178935;28;20120;-65
2022/06/20 10:58:53;;;;;;;6.03;2.35;;;35.00;88.50;;;;;;4178098;28;20531;-65
2022/06/20 11:01:15;;;;;;;4.78;2.22;;;34.90;88.80;;;;;;4178619;28;20557;-65
2022/06/20 11:03:46;;;;;;;6.35;2.20;;;34.80;89.50;;;;;;4177741;28;20119;-66
2022/06/20 11:06:08;;;;;;;8.38;2.40;;;34.70;89.90;;;;;;4179313;28;20041;-66
2022/06/20 11:08:26;;;;;;;6.45;2.40;;;34.70;90.10;;;;;;4168642;28;20056;-70
2022/06/20 11:10:51;;;;;;;5.32;2.10;;;34.60;90.00;;;;;;4171582;28;20116;-66
2022/06/20 11:13:27;;;;;;;3.83;2.00;;;34.50;90.40;;;;;;4177480;28;20056;-66
2022/06/20 11:16:11;;;;;;;4.82;2.28;;;34.50;90.60;;;;;;4179014;28;20109;-65
2022/06/20 11:18:42;;;;;;;12.10;3.08;;;34.50;90.90;;;;;;4137242;28;20109;-65
2022/06/20 11:20:51;;;;;;;8.52;2.60;;;34.40;91.10;;;;;;4178683;28;20037;-65
2022/06/20 11:23:18;;;;;;;6.57;2.75;;;34.30;91.20;;;;;;4178156;28;20095;-65
2022/06/20 11:26:07;;;;;;;6.85;3.05;;;34.20;91.40;;;;;;4178220;28;20053;-65
2022/06/20 11:28:31;;;;;;;8.52;3.50;;;34.20;91.70;;;;;;4166897;28;20103;-66
2022/06/20 11:31:07;;;;;;;6.38;3.67;;;34.10;91.80;;;;;;4176377;28;20044;-66
2022/06/20 11:36:08;;;;;;;6.65;2.95;;;34.00;92.10;;;;;;4176042;28;20141;-64
2022/06/20 11:38:39;;;;;;;11.32;3.45;;;34.00;92.10;;;;;;4177192;28;20052;-66
2022/06/20 11:41:12;;;;;;;7.40;4.38;;;33.90;92.30;;;;;;4176816;28;20477;-66
2022/06/20 11:43:49;;;;;;;8.65;4.30;;;33.90;92.30;;;;;;4175416;28;20045;-65
2022/06/20 11:46:26;;;;;;;8.48;6.60;;;33.90;92.40;;;;;;4177717;28;20041;-65
2022/06/20 11:49:00;;;;;;;11.88;8.00;;;33.80;92.20;;;;;;4175723;28;20458;-66
2022/06/20 11:51:35;;;;;;;13.85;8.27;;;33.90;92.60;;;;;;4176855;28;20055;-66
2022/06/20 11:54:11;;;;;;;9.50;6.85;;;33.90;92.60;;;;;;4178081;28;20144;-66
2022/06/20 11:56:45;;;;;;;13.00;6.22;;;33.80;92.60;;;;;;4175872;28;20135;-65
2022/06/20 11:59:04;;;;;;;11.52;5.50;;;33.80;92.70;;;;;;4174271;28;20053;-64
2022/06/20 12:01:15;;;;;;;6.85;4.60;;;33.80;92.70;;;;;;4160492;28;20065;-64
2022/06/20 12:03:38;;;;;;;6.85;4.00;;;33.70;92.90;;;;;;4169687;28;20759;-64
2022/06/20 12:06:07;;;;;;;7.10;3.45;;;33.70;92.90;;;;;;4169449;28;20399;-64
2022/06/20 12:08:21;;;;;;;6.30;3.63;;;33.60;93.00;;;;;;4167510;28;20055;-64
2022/06/20 12:10:52;;;;;;;10.32;4.10;;;33.60;93.10;;;;;;4166989;28;20064;-64
2022/06/20 12:13:15;;;;;;;8.55;4.00;;;33.50;93.20;;;;;;4167597;28;20080;-63
2022/06/20 12:15:37;;;;;;;5.50;4.18;;;33.50;93.40;;;;;;4165906;28;20128;-64
2022/06/20 12:17:54;;;;;;;8.30;4.88;;;33.40;93.40;;;;;;4170662;28;20051;-63